Time;durP1;ratioP1;P1;durP2;ratioP2;P2;SDS_P1;SDS_P2;PMS_P1;PMS_P2;Temp;Humidity;BMP_temperature;BMP_pressure;BME280_temperature;BME280_humidity;BME280_pressure;Samples;Min_cycle;Max_cycle;Signal;HPM_P1;HPM_P2
2023/12/03 00:00:46;;;;;;;4.20;3.20;;;;;;;1.72;84.43;97261.52;105615;1254;74818;-24
2023/12/03 00:03:13;;;;;;;6.70;3.50;;;;;;;1.44;85.01;97241.31;105468;1254;72784;-25
2023/12/03 00:05:41;;;;;;;6.50;3.40;;;;;;;1.21;86.03;97226.09;105711;1257;61011;-25
2023/12/03 00:08:08;;;;;;;3.90;2.40;;;;;;;1.00;86.89;97205.66;105796;1255;61045;-25
2023/12/03 00:10:35;;;;;;;5.90;3.30;;;;;;;1.50;86.53;97205.34;105635;1254;73705;-25
2023/12/03 00:13:02;;;;;;;4.80;3.10;;;;;;;2.03;84.54;97191.77;105524;1258;74876;-25
2023/12/03 00:15:29;;;;;;;5.80;3.40;;;;;;;2.06;83.74;97172.74;105541;1257;73240;-25
2023/12/03 00:17:56;;;;;;;6.10;3.40;;;;;;;1.84;84.08;97156.60;105356;1259;61108;-25
2023/12/03 00:20:23;;;;;;;5.20;3.10;;;;;;;1.52;84.71;97137.83;105550;1254;61167;-25
2023/12/03 00:22:50;;;;;;;6.20;3.70;;;;;;;1.20;86.04;97116.17;105543;1254;74102;-25
2023/12/03 00:25:17;;;;;;;4.10;2.50;;;;;;;1.02;87.26;97121.42;105477;1259;74211;-25
2023/12/03 00:27:44;;;;;;;4.50;3.00;;;;;;;1.52;86.44;97149.23;105507;1254;72573;-25
2023/12/03 00:30:13;;;;;;;5.00;3.20;;;;;;;1.76;84.96;97125.59;105513;1254;61164;-25
2023/12/03 00:32:40;;;;;;;4.20;2.70;;;;;;;1.60;84.88;97110.99;105459;1254;61177;-25
2023/12/03 00:35:08;;;;;;;5.70;3.20;;;;;;;1.35;85.72;97105.67;105166;1254;74233;-27
2023/12/03 00:37:35;;;;;;;5.40;3.10;;;;;;;1.08;86.76;97092.48;105507;1259;74216;-25
2023/12/03 00:40:02;;;;;;;4.00;2.60;;;;;;;0.90;87.70;97100.77;105527;1254;72465;-25
2023/12/03 00:42:29;;;;;;;4.10;2.50;;;;;;;1.36;87.19;97113.52;105516;1254;61062;-25
2023/12/03 00:44:56;;;;;;;3.70;2.60;;;;;;;1.79;85.18;97104.48;105560;1259;61108;-25
2023/12/03 00:47:23;;;;;;;4.20;3.40;;;;;;;1.74;84.67;97080.70;105501;1254;73616;-25
2023/12/03 00:49:50;;;;;;;4.10;2.80;;;;;;;1.58;84.77;97104.88;105371;1254;74522;-25
2023/12/03 00:52:17;;;;;;;6.00;2.50;;;;;;;1.33;85.43;97137.80;105513;1254;72442;-25
2023/12/03 00:54:44;;;;;;;4.70;2.60;;;;;;;1.08;86.48;97141.32;105522;1254;61149;-25
2023/12/03 00:57:11;;;;;;;2.90;2.00;;;;;;;1.11;87.04;97131.55;105488;1260;61130;-25
2023/12/03 00:59:38;;;;;;;3.10;2.20;;;;;;;1.75;85.52;97146.31;105722;1254;73686;-25
2023/12/03 01:02:05;;;;;;;3.90;2.50;;;;;;;1.88;84.00;97187.64;105539;1254;74475;-25
2023/12/03 01:04:32;;;;;;;5.10;2.40;;;;;;;1.70;84.49;97170.02;105529;1259;72493;-25
2023/12/03 01:06:59;;;;;;;3.80;2.40;;;;;;;1.59;84.56;97155.02;105458;1254;61067;-24
2023/12/03 01:09:30;;;;;;;3.50;2.30;;;;;;;1.38;85.41;97173.86;105668;1258;61167;-24
2023/12/03 01:11:57;;;;;;;2.70;1.90;;;;;;;1.11;86.59;97195.14;105648;1254;73864;-24
2023/12/03 01:14:24;;;;;;;3.40;1.80;;;;;;;1.07;87.42;97201.80;105656;1254;74209;-24
2023/12/03 01:16:52;;;;;;;5.50;3.00;;;;;;;1.67;86.17;97177.56;105756;1254;72352;-24
2023/12/03 01:19:19;;;;;;;4.40;2.60;;;;;;;1.98;84.70;97163.15;105602;1254;61017;-24
2023/12/03 01:21:46;;;;;;;3.40;2.40;;;;;;;1.93;84.30;97159.39;105364;1259;61179;-25
2023/12/03 01:24:13;;;;;;;3.20;2.20;;;;;;;1.75;84.47;97149.95;105589;1254;73545;-23
2023/12/03 01:26:40;;;;;;;2.50;1.60;;;;;;;1.52;85.00;97156.91;105675;1254;74310;-24
2023/12/03 01:29:07;;;;;;;3.60;2.20;;;;;;;1.24;85.78;97163.58;105242;1254;72959;-23
2023/12/03 01:31:34;;;;;;;2.60;1.80;;;;;;;1.26;86.95;97165.36;105532;1254;61194;-23
2023/12/03 01:34:01;;;;;;;4.30;2.70;;;;;;;1.88;85.25;97146.54;105508;1259;61164;-23
2023/12/03 01:36:28;;;;;;;2.90;1.80;;;;;;;2.13;84.09;97135.92;105560;1254;73582;-23
2023/12/03 01:38:55;;;;;;;4.00;1.80;;;;;;;2.04;83.97;97142.79;105537;1259;74111;-24
2023/12/03 01:41:22;;;;;;;4.40;2.60;;;;;;;1.80;84.35;97156.39;105534;1254;72525;-24
2023/12/03 01:43:51;;;;;;;3.90;2.60;;;;;;;1.38;85.95;97163.92;105394;1254;61055;-24
2023/12/03 01:46:21;;;;;;;5.00;2.90;;;;;;;1.10;87.76;97183.59;105396;1259;61141;-24
2023/12/03 01:48:48;;;;;;;4.80;3.10;;;;;;;1.33;87.68;97202.09;105189;1263;74184;-25
2023/12/03 01:51:15;;;;;;;4.80;3.20;;;;;;;1.59;86.59;97206.39;105307;1261;74369;-24
2023/12/03 01:53:43;;;;;;;5.30;2.90;;;;;;;1.53;86.51;97212.45;105436;1259;72963;-24
2023/12/03 01:56:11;;;;;;;5.70;3.70;;;;;;;1.40;86.91;97216.84;105591;1254;61139;-24
2023/12/03 01:58:39;;;;;;;4.50;3.20;;;;;;;1.15;87.99;97216.60;105462;1260;61084;-24
2023/12/03 02:01:06;;;;;;;4.50;2.40;;;;;;;0.85;89.95;97224.02;105565;1254;73884;-24
2023/12/03 02:03:34;;;;;;;5.00;3.10;;;;;;;1.29;89.38;97225.64;105643;1254;72994;-24
2023/12/03 02:06:04;;;;;;;5.50;3.60;;;;;;;1.63;87.11;97225.77;105796;1259;72187;-24
2023/12/03 02:08:32;;;;;;;4.40;3.00;;;;;;;1.52;87.36;97229.30;105261;1254;61118;-24
2023/12/03 02:11:01;;;;;;;4.40;2.30;;;;;;;1.33;87.93;97225.50;105518;1262;60996;-24
2023/12/03 02:13:29;;;;;;;5.40;3.20;;;;;;;1.19;88.49;97217.67;105480;1259;73865;-23
2023/12/03 02:15:56;;;;;;;4.90;2.90;;;;;;;1.15;89.05;97212.51;105302;1254;74589;-25
2023/12/03 02:18:24;;;;;;;4.80;2.90;;;;;;;1.55;88.14;97217.92;105523;1260;72670;-24
2023/12/03 02:20:53;;;;;;;4.80;2.90;;;;;;;1.66;87.00;97213.38;105444;1255;60990;-24
2023/12/03 02:23:20;;;;;;;6.10;3.50;;;;;;;1.57;87.11;97216.14;105601;1259;61167;-25
2023/12/03 02:25:51;;;;;;;4.40;2.30;;;;;;;1.42;87.54;97211.23;105569;1254;73791;-24
2023/12/03 02:28:18;;;;;;;6.20;3.50;;;;;;;1.16;88.85;97217.02;105389;1260;74913;-25
2023/12/03 02:30:45;;;;;;;4.90;2.60;;;;;;;1.18;88.98;97214.33;105554;1254;72436;-26
2023/12/03 02:33:12;;;;;;;6.60;3.30;;;;;;;1.73;87.64;97206.04;105178;1255;62602;-25
2023/12/03 02:35:39;;;;;;;4.60;2.60;;;;;;;1.98;86.02;97196.81;105471;1259;61167;-25
2023/12/03 02:38:06;;;;;;;4.70;2.70;;;;;;;1.74;86.35;97194.13;105521;1257;73693;-25
2023/12/03 02:40:35;;;;;;;5.60;3.20;;;;;;;1.46;87.56;97197.20;105626;1257;74869;-25
2023/12/03 02:43:02;;;;;;;5.40;3.00;;;;;;;1.09;89.82;97200.05;105260;1260;71130;-25
2023/12/03 02:45:29;;;;;;;6.50;3.40;;;;;;;1.37;90.06;97207.48;105463;1254;61075;-24
2023/12/03 02:47:56;;;;;;;6.80;3.50;;;;;;;1.93;87.41;97209.34;105484;1257;61128;-24
2023/12/03 02:50:23;;;;;;;4.70;2.60;;;;;;;1.76;87.19;97206.66;105540;1254;73325;-24
2023/12/03 02:52:50;;;;;;;7.10;3.60;;;;;;;1.51;88.81;97216.73;105551;1254;74201;-24
2023/12/03 02:55:17;;;;;;;5.30;3.20;;;;;;;1.50;88.28;97233.05;105493;1254;73199;-24
2023/12/03 02:57:44;;;;;;;5.80;3.80;;;;;;;1.31;88.77;97239.02;105565;1257;62744;-24
2023/12/03 03:00:12;;;;;;;5.20;3.00;;;;;;;1.70;88.37;97234.15;105388;1255;61095;-24
2023/12/03 03:02:39;;;;;;;5.90;4.00;;;;;;;2.09;86.67;97234.17;105253;1261;73611;-24
2023/12/03 03:05:06;;;;;;;6.00;3.60;;;;;;;2.07;85.89;97230.35;105469;1262;74305;-24
2023/12/03 03:07:33;;;;;;;5.30;3.40;;;;;;;1.86;86.66;97238.26;105320;1259;72600;-24
2023/12/03 03:10:00;;;;;;;6.20;4.00;;;;;;;1.56;88.10;97247.84;105491;1254;61039;-24
2023/12/03 03:12:27;;;;;;;5.00;3.40;;;;;;;1.31;89.12;97252.39;105553;1255;61099;-24
2023/12/03 03:14:54;;;;;;;6.80;3.70;;;;;;;1.45;89.74;97250.62;105587;1256;73893;-24
2023/12/03 03:17:21;;;;;;;4.80;3.50;;;;;;;1.92;87.47;97263.00;105491;1257;73238;-24
2023/12/03 03:19:48;;;;;;;3.70;2.80;;;;;;;1.86;87.32;97259.33;105502;1255;72653;-25
2023/12/03 03:22:15;;;;;;;6.10;2.90;;;;;;;1.68;87.85;97256.54;105579;1254;61372;-26
2023/12/03 03:24:42;;;;;;;5.00;2.90;;;;;;;1.48;88.70;97257.29;105530;1255;61163;-28
2023/12/03 03:27:09;;;;;;;4.70;3.30;;;;;;;1.27;89.86;97267.70;105333;1259;73927;-26
2023/12/03 03:29:36;;;;;;;2.90;2.20;;;;;;;1.42;89.78;97275.15;105516;1258;74340;-26
2023/12/03 03:32:04;;;;;;;3.50;2.60;;;;;;;1.81;87.84;97273.88;105568;1259;72802;-26
2023/12/03 03:34:32;;;;;;;3.30;2.30;;;;;;;1.88;86.85;97268.41;105580;1257;61147;-26
2023/12/03 03:36:59;;;;;;;2.70;1.80;;;;;;;1.61;87.51;97274.52;105872;1260;61137;-26
2023/12/03 03:39:26;;;;;;;4.90;3.20;;;;;;;1.42;88.48;97273.27;105843;1254;73838;-26
2023/12/03 03:41:53;;;;;;;2.20;1.70;;;;;;;1.23;89.47;97277.01;105843;1254;74642;-24
2023/12/03 03:44:20;;;;;;;3.30;2.40;;;;;;;1.56;88.51;97282.69;105613;1257;72543;-24
2023/12/03 03:46:47;;;;;;;2.50;2.00;;;;;;;1.80;86.80;97288.48;105527;1255;61200;-24
2023/12/03 03:49:14;;;;;;;4.50;3.00;;;;;;;1.79;86.27;97284.98;105380;1260;61084;-24
2023/12/03 03:51:41;;;;;;;3.00;2.00;;;;;;;1.57;86.89;97278.52;105743;1254;73674;-24
2023/12/03 03:54:08;;;;;;;3.80;2.90;;;;;;;1.23;88.22;97266.95;105592;1258;74380;-24
2023/12/03 04:05:44;;;;;;;1.80;1.50;;;;;;;1.10;88.99;97300.48;103960;1277;616085;-25
2023/12/03 04:08:11;;;;;;;2.50;1.70;;;;;;;0.99;89.32;97299.05;105237;1264;61110;-25
2023/12/03 04:10:38;;;;;;;2.40;1.60;;;;;;;1.12;88.77;97307.35;105171;1264;61113;-25
2023/12/03 04:13:05;;;;;;;3.10;2.20;;;;;;;1.37;86.82;97303.08;105139;1266;72208;-25
2023/12/03 04:15:32;;;;;;;3.90;2.60;;;;;;;1.28;85.97;97304.70;105176;1264;74133;-25
2023/12/03 04:17:59;;;;;;;2.70;2.10;;;;;;;1.09;86.74;97310.15;102478;1264;3603346;-25
2023/12/03 04:20:26;;;;;;;2.40;1.90;;;;;;;0.90;87.21;97315.39;105284;1260;61685;-25
2023/12/03 04:22:53;;;;;;;3.20;1.80;;;;;;;0.83;87.10;97320.84;105220;1261;61118;-25
2023/12/03 04:25:22;;;;;;;3.00;2.20;;;;;;;1.01;85.18;97302.15;105247;1261;72067;-25
2023/12/03 04:27:49;;;;;;;3.10;2.00;;;;;;;0.96;86.02;97316.70;105260;1261;74407;-25
2023/12/03 04:30:16;;;;;;;3.20;1.30;;;;;;;0.86;85.64;97312.23;105287;1261;72315;-23
2023/12/03 04:32:43;;;;;;;1.60;1.40;;;;;;;0.62;86.68;97324.48;105246;1261;61132;-23
2023/12/03 04:35:10;;;;;;;1.00;0.80;;;;;;;0.48;87.60;97306.48;105239;1261;61173;-23
2023/12/03 04:37:37;;;;;;;1.10;1.00;;;;;;;0.74;87.48;97335.98;105167;1261;72828;-25
2023/12/03 04:40:06;;;;;;;2.00;1.40;;;;;;;0.81;87.62;97352.26;105173;1261;74331;-25
2023/12/03 04:42:35;;;;;;;2.50;1.60;;;;;;;0.66;88.32;97354.58;105197;1261;71187;-23
2023/12/03 04:45:03;;;;;;;1.70;1.50;;;;;;;0.49;89.16;97355.41;105265;1261;61126;-23
2023/12/03 04:47:32;;;;;;;2.00;1.30;;;;;;;0.54;89.25;97366.31;105237;1261;61175;-23
2023/12/03 04:49:59;;;;;;;1.20;1.10;;;;;;;0.73;87.29;97359.74;105287;1261;73434;-23
2023/12/03 04:52:26;;;;;;;1.60;1.20;;;;;;;0.75;87.21;97398.23;105217;1263;74849;-23
2023/12/03 04:54:53;;;;;;;3.10;1.50;;;;;;;0.54;87.49;97398.25;105246;1266;72524;-25
2023/12/03 04:57:20;;;;;;;1.70;1.50;;;;;;;0.40;87.89;97410.44;105220;1261;61054;-25
2023/12/03 04:59:47;;;;;;;1.80;1.50;;;;;;;0.34;88.36;97414.81;105152;1266;61172;-26
2023/12/03 05:02:14;;;;;;;1.50;1.20;;;;;;;0.48;86.93;97400.05;105155;1261;71650;-26
2023/12/03 05:04:41;;;;;;;1.80;1.20;;;;;;;0.39;87.55;97422.67;105246;1261;74933;-24
2023/12/03 05:07:08;;;;;;;1.60;1.50;;;;;;;0.33;87.90;97418.95;105203;1264;72644;-23
2023/12/03 05:09:39;;;;;;;2.40;1.60;;;;;;;0.18;89.00;97427.08;105080;1264;61080;-24
2023/12/03 05:12:07;;;;;;;2.10;1.60;;;;;;;0.18;87.69;97402.64;104886;1264;60993;-23
2023/12/03 05:14:34;;;;;;;1.70;1.60;;;;;;;0.33;86.26;97426.47;104778;1264;73480;-24
2023/12/03 05:17:01;;;;;;;2.90;2.10;;;;;;;0.22;86.89;97451.54;104950;1264;74681;-24
2023/12/03 05:19:28;;;;;;;3.40;2.70;;;;;;;-0.11;87.01;97447.57;105042;1264;72553;-25
2023/12/03 05:21:55;;;;;;;4.20;2.80;;;;;;;-0.41;88.24;97468.99;104872;1267;61539;-25
2023/12/03 05:24:22;;;;;;;3.80;3.10;;;;;;;-0.33;87.51;97480.09;105122;1263;61048;-25
2023/12/03 05:26:50;;;;;;;3.40;2.80;;;;;;;-0.24;85.49;97487.41;105181;1264;72758;-25
2023/12/03 05:29:17;;;;;;;4.90;3.70;;;;;;;-0.39;85.52;97495.99;105122;1264;74087;-25
2023/12/03 05:31:45;;;;;;;4.30;3.60;;;;;;;-0.68;85.97;97505.08;105118;1264;72485;-27
2023/12/03 05:34:12;;;;;;;6.10;3.70;;;;;;;-0.83;86.19;97508.17;104849;1263;61172;-26
2023/12/03 05:36:39;;;;;;;6.50;4.50;;;;;;;-0.91;85.94;97485.80;105114;1264;61255;-26
2023/12/03 05:39:06;;;;;;;7.00;5.20;;;;;;;-0.68;85.16;97511.55;105224;1264;72967;-27
2023/12/03 05:41:39;;;;;;;7.50;4.70;;;;;;;-0.80;85.27;97524.68;105261;1266;74263;-27
2023/12/03 05:44:06;;;;;;;10.20;6.70;;;;;;;-0.94;85.97;97535.23;105167;1264;72694;-27
2023/12/03 05:46:39;;;;;;;7.70;4.80;;;;;;;-1.20;86.22;97538.58;105213;1264;61052;-28
2023/12/03 05:49:06;;;;;;;8.80;6.00;;;;;;;-1.09;85.57;97547.67;104878;1266;61219;-25
2023/12/03 05:51:34;;;;;;;11.70;7.50;;;;;;;-1.06;84.15;97556.66;105173;1264;73079;-26
2023/12/03 05:54:02;;;;;;;11.00;7.40;;;;;;;-1.24;83.26;97567.27;105046;1263;74746;-28
2023/12/03 05:56:29;;;;;;;12.50;7.40;;;;;;;-1.47;84.70;97567.49;105126;1264;72625;-29
2023/12/03 05:58:56;;;;;;;9.60;7.00;;;;;;;-1.77;85.42;97576.98;105075;1263;61061;-29
2023/12/03 06:01:26;;;;;;;12.60;8.50;;;;;;;-1.67;85.38;97586.48;105019;1263;61243;-29
2023/12/03 06:03:53;;;;;;;11.40;7.60;;;;;;;-1.59;83.88;97573.45;105368;1261;74134;-29
2023/12/03 06:06:20;;;;;;;12.40;7.90;;;;;;;-1.74;83.97;97605.22;105287;1260;73316;-29
2023/12/03 06:08:48;;;;;;;13.90;7.70;;;;;;;-1.99;84.46;97589.73;105460;1260;71570;-28
2023/12/03 06:11:15;;;;;;;11.00;7.10;;;;;;;-2.10;85.24;97617.34;105437;1260;61642;-28
2023/12/03 06:13:42;;;;;;;13.70;8.40;;;;;;;-1.90;84.54;97626.99;105283;1263;61105;-28
2023/12/03 06:16:09;;;;;;;12.50;7.50;;;;;;;-1.91;83.73;97615.99;105456;1260;72715;-29
2023/12/03 06:18:36;;;;;;;11.50;6.80;;;;;;;-2.03;84.31;97648.97;105273;1266;73328;-29
2023/12/03 06:21:04;;;;;;;13.20;8.10;;;;;;;-2.10;84.70;97665.96;105407;1260;72550;-29
2023/12/03 06:23:31;;;;;;;14.90;8.60;;;;;;;-2.27;85.19;97666.16;105220;1260;61171;-29
2023/12/03 06:26:00;;;;;;;16.90;9.90;;;;;;;-1.97;83.63;97688.45;105409;1263;61125;-29
2023/12/03 06:28:26;;;;;;;17.00;8.70;;;;;;;-2.08;83.20;97689.55;105229;1260;73007;-30
2023/12/03 06:30:53;;;;;;;12.90;7.10;;;;;;;-2.23;83.34;97687.43;105242;1260;73056;-29
2023/12/03 06:33:20;;;;;;;12.20;7.10;;;;;;;-2.40;84.72;97724.30;105298;1260;72607;-29
2023/12/03 06:35:51;;;;;;;14.40;8.10;;;;;;;-2.43;85.29;97722.75;105146;1263;61115;-30
2023/12/03 06:38:18;;;;;;;12.00;7.90;;;;;;;-2.24;83.79;97710.23;104932;1266;61128;-29
2023/12/03 06:40:45;;;;;;;13.50;8.00;;;;;;;-2.26;83.06;97729.73;105465;1260;73653;-29
2023/12/03 06:43:12;;;;;;;14.60;9.10;;;;;;;-2.35;83.28;97733.58;105406;1261;74156;-29
2023/12/03 06:45:39;;;;;;;15.40;8.90;;;;;;;-2.63;83.93;97727.64;105354;1260;72437;-29
2023/12/03 06:48:07;;;;;;;13.90;8.20;;;;;;;-2.70;84.59;97758.89;105072;1265;61158;-30
2023/12/03 06:50:34;;;;;;;15.40;10.20;;;;;;;-2.43;84.01;97766.09;105269;1260;61191;-30
2023/12/03 06:53:01;;;;;;;15.90;8.30;;;;;;;-2.44;82.70;97769.16;105153;1265;72039;-30
2023/12/03 06:55:28;;;;;;;16.00;8.20;;;;;;;-2.49;82.39;97758.70;105219;1260;74041;-29
2023/12/03 06:57:55;;;;;;;18.50;10.20;;;;;;;-2.63;83.36;97766.20;105258;1260;72602;-30
2023/12/03 07:00:25;;;;;;;18.30;11.20;;;;;;;-2.89;83.81;97767.39;105104;1261;61153;-29
2023/12/03 07:02:53;;;;;;;17.30;10.20;;;;;;;-2.86;83.76;97757.41;105252;1260;61067;-29
2023/12/03 07:05:20;;;;;;;19.30;11.80;;;;;;;-2.79;82.93;97744.19;105261;1260;73781;-30
2023/12/03 07:07:51;;;;;;;14.30;9.40;;;;;;;-2.94;83.51;97771.75;105458;1260;74396;-29
2023/12/03 07:10:18;;;;;;;14.70;8.40;;;;;;;-3.03;83.90;97787.05;105449;1260;72709;-29
2023/12/03 07:12:45;;;;;;;18.30;10.90;;;;;;;-3.11;84.52;97792.52;105464;1260;61160;-29
2023/12/03 07:15:12;;;;;;;16.20;10.00;;;;;;;-3.02;83.70;97777.83;105438;1261;61754;-30
2023/12/03 07:17:40;;;;;;;17.00;9.20;;;;;;;-2.77;82.37;97799.63;105449;1260;72794;-30
2023/12/03 07:20:07;;;;;;;18.40;10.30;;;;;;;-2.90;82.53;97784.42;105471;1260;74098;-30
2023/12/03 07:22:35;;;;;;;14.60;8.00;;;;;;;-3.13;83.31;97820.11;105271;1260;72651;-30
2023/12/03 07:25:04;;;;;;;15.10;8.40;;;;;;;-3.22;83.58;97827.34;105299;1259;61856;-30
2023/12/03 07:27:32;;;;;;;16.30;9.70;;;;;;;-2.95;82.17;97816.95;105468;1258;61394;-30
2023/12/03 07:29:59;;;;;;;17.50;9.00;;;;;;;-2.90;81.03;97812.27;105365;1257;73099;-30
2023/12/03 07:32:26;;;;;;;16.30;8.90;;;;;;;-2.95;81.27;97840.04;105649;1258;74376;-29
2023/12/03 07:34:53;;;;;;;8.80;6.00;;;;;;;-3.16;81.77;97853.89;105673;1257;72620;-29
2023/12/03 07:37:20;;;;;;;13.50;7.90;;;;;;;-3.33;82.75;97846.96;105606;1256;61049;-30
2023/12/03 07:39:47;;;;;;;13.30;7.40;;;;;;;-3.26;83.33;97867.56;105573;1260;61122;-30
2023/12/03 07:42:14;;;;;;;11.30;6.20;;;;;;;-3.01;82.34;97864.40;105653;1257;72718;-31
2023/12/03 07:44:41;;;;;;;10.10;6.10;;;;;;;-2.95;81.68;97866.19;105652;1258;74192;-30
2023/12/03 07:47:08;;;;;;;17.10;8.80;;;;;;;-3.06;81.76;97884.52;105634;1257;72633;-30
2023/12/03 07:49:35;;;;;;;12.90;7.50;;;;;;;-3.20;82.26;97883.94;105469;1257;61032;-30
2023/12/03 07:52:03;;;;;;;12.50;6.60;;;;;;;-3.31;82.06;97886.44;105385;1260;61201;-30
2023/12/03 07:54:30;;;;;;;12.90;6.60;;;;;;;-3.16;82.04;97904.46;105278;1258;73252;-30
2023/12/03 07:56:57;;;;;;;14.90;7.20;;;;;;;-2.89;80.61;97910.94;105552;1257;74696;-30
2023/12/03 07:59:24;;;;;;;9.70;6.20;;;;;;;-2.98;80.92;97907.92;105645;1257;72661;-30
2023/12/03 08:01:51;;;;;;;12.40;6.50;;;;;;;-3.15;81.20;97919.71;105541;1258;61042;-30
2023/12/03 08:04:18;;;;;;;13.60;6.80;;;;;;;-3.19;81.65;97919.86;105313;1262;61150;-30
2023/12/03 08:06:45;;;;;;;12.70;6.50;;;;;;;-3.19;82.16;97928.52;105567;1257;73593;-30
2023/12/03 08:09:12;;;;;;;13.50;8.80;;;;;;;-2.91;81.30;97922.25;105624;1263;74335;-30
2023/12/03 08:11:39;;;;;;;9.90;6.30;;;;;;;-2.99;80.68;97925.28;105578;1257;72803;-30
2023/12/03 08:14:06;;;;;;;9.80;6.10;;;;;;;-3.08;81.55;97952.36;105646;1256;61141;-31
2023/12/03 08:16:33;;;;;;;9.90;6.40;;;;;;;-2.96;82.17;97973.23;105638;1260;61054;-31
2023/12/03 08:19:00;;;;;;;9.50;5.40;;;;;;;-3.06;82.29;97971.30;105635;1257;73614;-31
2023/12/03 08:21:31;;;;;;;13.50;7.30;;;;;;;-3.00;82.34;97967.14;105660;1257;74318;-31
2023/12/03 08:24:00;;;;;;;8.00;4.90;;;;;;;-2.69;80.81;97973.11;105652;1258;72716;-32
2023/12/03 08:26:27;;;;;;;14.10;6.60;;;;;;;-2.74;80.68;97974.33;105487;1258;61179;-31
2023/12/03 08:28:55;;;;;;;9.40;5.30;;;;;;;-2.87;80.64;97978.96;105666;1255;62534;-31
2023/12/03 08:33:19;;;;;;;10.80;6.70;;;;;;;-3.15;82.00;97986.46;104216;1270;616177;-31
2023/12/03 08:35:47;;;;;;;9.90;6.20;;;;;;;-3.06;81.88;97993.71;104868;1264;61251;-31
2023/12/03 08:38:14;;;;;;;11.30;6.60;;;;;;;-2.63;80.44;97987.42;104853;1272;61840;-31
2023/12/03 08:40:41;;;;;;;9.80;6.00;;;;;;;-2.47;79.33;97999.14;104835;1269;72184;-31
2023/12/03 08:43:09;;;;;;;10.60;6.00;;;;;;;-2.56;78.88;97994.92;104603;1264;74376;-28
2023/12/03 08:45:37;;;;;;;9.80;5.90;;;;;;;-2.84;79.45;97986.82;102185;1264;3700646;-29
2023/12/03 08:48:07;;;;;;;10.90;5.60;;;;;;;-2.86;80.18;98019.86;105153;1266;61870;-30
2023/12/03 08:50:37;;;;;;;7.40;4.50;;;;;;;-2.83;80.04;98028.89;105081;1264;61658;-31
2023/12/03 08:53:04;;;;;;;9.20;6.00;;;;;;;-2.63;78.44;98028.71;104937;1264;72768;-31
2023/12/03 08:55:31;;;;;;;11.60;5.30;;;;;;;-2.56;77.11;98027.08;105191;1266;74142;-30
2023/12/03 08:58:01;;;;;;;8.80;5.90;;;;;;;-2.76;77.89;98045.29;104897;1264;72603;-29
2023/12/03 09:00:28;;;;;;;12.70;6.30;;;;;;;-2.96;78.90;98055.45;104927;1263;61192;-29
2023/12/03 09:02:56;;;;;;;10.40;5.70;;;;;;;-3.14;79.26;98070.61;104982;1264;61097;-30
2023/12/03 09:05:23;;;;;;;9.40;5.40;;;;;;;-3.26;79.86;98081.13;105094;1264;72806;-29
2023/12/03 09:07:50;;;;;;;11.60;5.20;;;;;;;-3.12;80.20;98103.48;105264;1264;74100;-29
2023/12/03 09:10:17;;;;;;;6.50;4.40;;;;;;;-2.84;79.92;98108.09;105154;1264;72620;-29
2023/12/03 09:12:44;;;;;;;7.10;5.00;;;;;;;-2.64;78.14;98111.00;105040;1264;61125;-30
2023/12/03 09:15:11;;;;;;;9.30;6.00;;;;;;;-2.80;79.25;98125.27;105090;1266;61099;-30
2023/12/03 09:17:38;;;;;;;9.70;6.10;;;;;;;-2.99;79.44;98117.05;104929;1264;72128;-30
2023/12/03 09:20:07;;;;;;;7.60;4.50;;;;;;;-3.01;79.72;98132.60;104902;1264;73386;-29
2023/12/03 09:22:34;;;;;;;13.20;7.20;;;;;;;-3.11;79.98;98127.41;104957;1264;72610;-29
2023/12/03 09:25:01;;;;;;;7.20;4.70;;;;;;;-2.88;79.12;98135.83;105215;1264;61061;-29
2023/12/03 09:27:29;;;;;;;6.70;4.40;;;;;;;-2.70;78.31;98151.56;105184;1264;61211;-29
2023/12/03 09:29:56;;;;;;;6.60;4.30;;;;;;;-2.64;78.45;98162.67;105244;1266;72733;-29
2023/12/03 09:32:23;;;;;;;9.60;5.60;;;;;;;-2.67;77.89;98167.55;105162;1264;74690;-29
2023/12/03 09:34:50;;;;;;;12.70;4.80;;;;;;;-2.79;78.52;98172.81;104934;1264;72949;-29
2023/12/03 09:37:17;;;;;;;8.50;5.50;;;;;;;-2.85;78.88;98176.11;104827;1264;61061;-29
2023/12/03 09:39:44;;;;;;;8.40;5.10;;;;;;;-2.89;78.97;98162.00;104984;1265;61179;-29
2023/12/03 09:42:11;;;;;;;9.00;6.10;;;;;;;-2.55;78.44;98170.48;104865;1263;74837;-30
2023/12/03 09:44:41;;;;;;;11.80;6.70;;;;;;;-2.46;77.60;98161.77;104554;1272;75275;-29
2023/12/03 09:47:08;;;;;;;9.10;5.50;;;;;;;-2.61;77.84;98157.60;104820;1264;72462;-29
2023/12/03 09:49:37;;;;;;;9.90;6.00;;;;;;;-2.81;78.55;98148.58;105131;1264;61075;-29
2023/12/03 09:52:04;;;;;;;11.80;6.10;;;;;;;-3.11;79.80;98158.30;105398;1261;61108;-29
2023/12/03 09:54:32;;;;;;;8.20;5.20;;;;;;;-3.31;81.38;98142.93;105454;1257;73067;-29
2023/12/03 09:56:59;;;;;;;8.50;6.10;;;;;;;-2.99;80.85;98163.76;105399;1263;74113;-29
2023/12/03 09:59:29;;;;;;;8.60;5.20;;;;;;;-2.80;79.82;98172.36;105512;1257;73008;-29
2023/12/03 10:01:56;;;;;;;7.10;4.80;;;;;;;-2.68;79.39;98189.01;105114;1257;61004;-29
2023/12/03 10:04:23;;;;;;;11.80;6.10;;;;;;;-2.81;79.52;98196.50;105243;1264;61710;-29
2023/12/03 10:06:50;;;;;;;9.90;5.60;;;;;;;-3.09;80.28;98196.59;105255;1258;72897;-31
2023/12/03 10:09:18;;;;;;;8.20;5.10;;;;;;;-3.13;81.01;98212.20;105362;1263;74077;-29
2023/12/03 10:11:53;;;;;;;10.20;5.80;;;;;;;-2.74;80.23;98215.09;105182;1260;73226;-29
2023/12/03 10:14:20;;;;;;;9.30;5.30;;;;;;;-2.60;79.04;98229.13;105343;1263;61781;-29
2023/12/03 10:16:50;;;;;;;10.60;6.30;;;;;;;-2.65;79.23;98222.02;105467;1263;61431;-29
2023/12/03 10:19:22;;;;;;;10.40;6.00;;;;;;;-2.87;79.45;98222.39;105291;1257;72895;-29
2023/12/03 10:21:50;;;;;;;11.70;6.30;;;;;;;-2.96;80.86;98229.70;105288;1265;74204;-29
2023/12/03 10:24:21;;;;;;;10.70;7.00;;;;;;;-2.95;80.57;98221.17;105223;1265;72497;-29
2023/12/03 10:26:51;;;;;;;11.60;7.20;;;;;;;-2.78;80.06;98217.45;105280;1257;61071;-29
2023/12/03 10:29:26;;;;;;;9.60;6.10;;;;;;;-2.43;78.94;98232.52;105187;1257;61182;-29
2023/12/03 10:31:53;;;;;;;10.30;6.20;;;;;;;-2.33;78.27;98247.59;105610;1263;72990;-30
2023/12/03 10:34:21;;;;;;;11.90;7.30;;;;;;;-2.52;78.79;98248.20;105513;1263;74354;-29
2023/12/03 10:36:49;;;;;;;10.10;6.10;;;;;;;-2.71;79.14;98242.84;105441;1259;72638;-29
2023/12/03 10:39:20;;;;;;;14.20;6.40;;;;;;;-2.75;79.46;98262.38;105417;1257;61093;-29
2023/12/03 10:41:49;;;;;;;9.30;5.50;;;;;;;-2.76;79.90;98271.40;105462;1263;61133;-29
2023/12/03 10:44:23;;;;;;;7.20;4.60;;;;;;;-2.45;78.59;98274.92;105459;1257;73078;-29
2023/12/03 10:46:51;;;;;;;12.40;7.20;;;;;;;-2.30;78.00;98281.30;105220;1267;74392;-29
2023/12/03 10:49:18;;;;;;;8.40;5.50;;;;;;;-2.40;77.98;98278.83;105620;1257;72746;-29
2023/12/03 10:51:46;;;;;;;7.80;4.10;;;;;;;-2.44;78.88;98289.02;105174;1262;61164;-29
2023/12/03 10:54:14;;;;;;;7.30;4.60;;;;;;;-2.57;79.67;98286.81;105144;1261;61137;-29
2023/12/03 10:56:43;;;;;;;12.90;6.50;;;;;;;-2.68;80.11;98289.79;105080;1257;73335;-29
2023/12/03 10:59:11;;;;;;;10.50;5.80;;;;;;;-2.40;79.77;98291.58;105254;1257;73334;-29
2023/12/03 11:01:41;;;;;;;11.30;6.60;;;;;;;-2.06;78.04;98292.54;105109;1263;72648;-29
2023/12/03 11:04:17;;;;;;;7.00;4.90;;;;;;;-2.03;77.52;98312.16;105261;1258;61140;-30
2023/12/03 11:06:44;;;;;;;8.50;4.90;;;;;;;-2.08;78.56;98320.04;105355;1263;61207;-29
2023/12/03 11:09:12;;;;;;;9.30;5.30;;;;;;;-2.20;79.18;98325.42;105195;1258;74311;-29
2023/12/03 11:11:39;;;;;;;11.10;6.50;;;;;;;-2.38;80.02;98318.52;105283;1257;75811;-29
2023/12/03 11:14:06;;;;;;;7.90;4.60;;;;;;;-2.44;80.69;98316.86;105300;1257;72538;-29
2023/12/03 11:16:51;;;;;;;10.90;6.20;;;;;;;-2.08;79.52;98332.10;105087;1263;61166;-29
2023/12/03 11:19:18;;;;;;;7.70;4.60;;;;;;;-1.89;78.80;98323.85;105262;1259;61138;-29
2023/12/03 11:21:57;;;;;;;9.60;6.30;;;;;;;-2.07;78.62;98334.59;105317;1258;73568;-29
2023/12/03 11:24:34;;;;;;;9.20;6.30;;;;;;;-2.50;80.99;98323.94;105397;1264;74134;-29
2023/12/03 11:27:02;;;;;;;10.90;6.20;;;;;;;-2.45;81.31;98332.20;105389;1262;72372;-29
2023/12/03 11:29:48;;;;;;;8.60;5.20;;;;;;;-2.45;81.31;98335.79;105298;1257;61394;-29
2023/12/03 11:32:17;;;;;;;10.10;6.10;;;;;;;-2.08;79.71;98337.54;105422;1263;61128;-32
2023/12/03 11:34:44;;;;;;;8.00;4.20;;;;;;;-1.87;78.60;98343.31;105078;1257;72905;-31
2023/12/03 11:37:12;;;;;;;11.50;6.50;;;;;;;-1.90;78.56;98341.93;105193;1258;73234;-28
2023/12/03 11:39:42;;;;;;;8.80;5.10;;;;;;;-2.20;79.75;98346.69;105126;1260;72641;-28